createdAt,value
2018-02-23T00:01:02.188Z,19.65
2018-02-23T00:02:11.398Z,19.63
2018-02-23T00:03:20.633Z,19.69
2018-02-23T00:04:29.355Z,19.66
2018-02-23T00:05:38.574Z,19.68
2018-02-23T00:06:47.788Z,19.69
2018-02-23T00:07:56.728Z,19.69
2018-02-23T00:09:05.684Z,19.68
2018-02-23T00:10:14.728Z,19.63
2018-02-23T00:11:23.926Z,19.65
2018-02-23T00:12:32.899Z,19.63
2018-02-23T00:13:41.857Z,19.69
2018-02-23T00:14:51.099Z,19.56
2018-02-23T00:16:00.046Z,19.61
2018-02-23T00:17:09.081Z,19.59
2018-02-23T00:18:17.770Z,19.61
2018-02-23T00:19:27.242Z,19.58
2018-02-23T00:20:36.455Z,19.63
2018-02-23T00:21:45.180Z,19.56
2018-02-23T00:22:54.181Z,19.51
2018-02-23T00:24:03.689Z,19.55
2018-02-23T00:25:12.671Z,19.55
2018-02-23T00:26:21.741Z,19.48
2018-02-23T00:27:30.767Z,19.48
2018-02-23T00:28:39.984Z,19.46
2018-02-23T00:29:49.176Z,19.54
2018-02-23T00:30:58.253Z,19.43
2018-02-23T00:32:07.244Z,19.47
2018-02-23T00:33:16.275Z,19.5
2018-02-23T00:34:25.277Z,19.44
2018-02-23T00:35:34.492Z,19.47
2018-02-23T00:36:43.733Z,19.46
2018-02-23T00:37:53.003Z,19.41
2018-02-23T00:39:02.199Z,19.46
2018-02-23T00:40:11.421Z,19.39
2018-02-23T00:41:20.382Z,19.46
2018-02-23T00:42:29.587Z,19.47
2018-02-23T00:43:38.807Z,19.39
2018-02-23T00:44:48.280Z,19.48
2018-02-23T00:45:57.222Z,19.44
2018-02-23T00:47:06.422Z,19.47
2018-02-23T00:48:15.367Z,19.31
2018-02-23T00:49:24.310Z,19.32
2018-02-23T00:50:33.771Z,19.41
2018-02-23T00:51:42.749Z,19.36
2018-02-23T00:52:51.693Z,19.41
2018-02-23T00:54:00.921Z,19.4
2018-02-23T00:55:09.877Z,19.28
2018-02-23T00:56:18.832Z,19.32
2018-02-23T00:57:27.766Z,19.29
2018-02-23T00:58:36.710Z,19.36
2018-02-23T00:59:45.662Z,19.32
2018-02-23T01:00:54.622Z,19.32
2018-02-23T01:02:03.850Z,19.32
2018-02-23T01:03:12.791Z,19.32
2018-02-23T01:04:21.741Z,19.37
2018-02-23T01:05:31.046Z,19.36
2018-02-23T01:06:40.539Z,19.29
2018-02-23T01:07:50.002Z,19.23
2018-02-23T01:08:59.227Z,19.25
2018-02-23T01:10:08.191Z,19.26
2018-02-23T01:11:17.404Z,19.28
2018-02-23T01:12:26.427Z,19.23
2018-02-23T01:13:35.650Z,19.33
2018-02-23T01:14:44.598Z,19.26
2018-02-23T01:15:54.071Z,19.26
2018-02-23T01:17:03.054Z,19.23
2018-02-23T01:18:11.734Z,19.28
2018-02-23T01:19:20.426Z,19.21
2018-02-23T01:20:29.689Z,19.28
2018-02-23T01:21:38.656Z,19.19
2018-02-23T01:22:48.145Z,19.29
2018-02-23T01:23:57.094Z,19.31
2018-02-23T01:25:06.846Z,19.23
2018-02-23T01:26:16.069Z,19.29
2018-02-23T01:27:25.036Z,19.29
2018-02-23T01:28:34.248Z,19.26
2018-02-23T01:29:42.948Z,19.23
2018-02-23T01:30:52.420Z,19.22
2018-02-23T01:32:01.118Z,19.13
2018-02-23T01:33:10.328Z,19.22
2018-02-23T01:34:19.548Z,19.23
2018-02-23T01:35:28.749Z,19.25
2018-02-23T01:36:37.778Z,19.22
2018-02-23T01:37:46.479Z,19.1
2018-02-23T01:38:55.698Z,19.23
2018-02-23T01:40:04.905Z,19.13
2018-02-23T01:41:13.589Z,19.23
2018-02-23T01:42:22.531Z,19.16
2018-02-23T01:43:31.473Z,19.11
2018-02-23T01:44:40.441Z,19.1
2018-02-23T01:45:49.382Z,19.1
2018-02-23T01:46:58.586Z,19.19
2018-02-23T01:48:08.087Z,19.1
2018-02-23T01:49:17.045Z,19.11
2018-02-23T01:50:26.008Z,19.11
2018-02-23T01:51:34.956Z,19.08
2018-02-23T01:52:44.425Z,19.07
2018-02-23T01:53:53.659Z,19.08
2018-02-23T01:55:02.875Z,19.11
2018-02-23T01:56:12.091Z,19.13
2018-02-23T01:57:21.842Z,19.06
2018-02-23T01:58:31.063Z,19.06
2018-02-23T01:59:41.061Z,19.07
2018-02-23T02:00:50.528Z,18.99
2018-02-23T02:01:59.473Z,19
2018-02-23T02:03:08.435Z,19.02
2018-02-23T02:04:17.432Z,18.99
2018-02-23T02:05:26.397Z,19.04
2018-02-23T02:06:35.658Z,19.04
2018-02-23T02:07:45.152Z,18.95
2018-02-23T02:08:54.374Z,19.07
2018-02-23T02:10:03.594Z,19.04
2018-02-23T02:11:12.804Z,19.02
2018-02-23T02:12:21.734Z,19.04
2018-02-23T02:13:31.220Z,19.08
2018-02-23T02:14:40.441Z,19
2018-02-23T02:15:49.141Z,19
2018-02-23T02:16:57.836Z,19.02
2018-02-23T02:18:06.779Z,19.06
2018-02-23T02:19:16.514Z,19.02
2018-02-23T02:20:25.476Z,19.04
2018-02-23T02:21:34.182Z,18.99
2018-02-23T02:22:43.148Z,18.87
2018-02-23T02:23:52.474Z,18.91
2018-02-23T02:25:01.673Z,18.98
2018-02-23T02:26:10.898Z,18.95
2018-02-23T02:27:20.099Z,18.91
2018-02-23T02:28:29.296Z,18.94
2018-02-23T02:29:38.539Z,18.94
2018-02-23T02:30:47.767Z,18.98
2018-02-23T02:31:57.524Z,18.94
2018-02-23T02:33:06.740Z,18.95
2018-02-23T02:34:16.138Z,18.92
2018-02-23T02:35:25.344Z,18.92
2018-02-23T02:36:34.565Z,18.95
2018-02-23T02:37:43.543Z,18.99
2018-02-23T02:38:53.056Z,18.94
2018-02-23T02:40:02.014Z,18.91
2018-02-23T02:41:11.491Z,18.94
2018-02-23T02:42:20.984Z,18.91
2018-02-23T02:43:29.932Z,18.92
2018-02-23T02:44:39.149Z,18.99
2018-02-23T02:45:48.630Z,18.95
2018-02-23T02:46:58.110Z,18.92
2018-02-23T02:48:07.068Z,18.94
2018-02-23T02:49:16.289Z,18.94
2018-02-23T02:50:25.248Z,18.8
2018-02-23T02:51:34.718Z,18.99
2018-02-23T02:52:43.971Z,18.9
2018-02-23T02:53:54.024Z,18.95
2018-02-23T02:55:03.247Z,18.85
2018-02-23T02:56:12.475Z,18.88
2018-02-23T02:57:21.743Z,18.87
2018-02-23T02:58:30.947Z,18.91
2018-02-23T02:59:39.903Z,18.84
2018-02-23T03:00:49.396Z,18.8
2018-02-23T03:01:58.631Z,18.8
2018-02-23T03:03:08.118Z,18.87
2018-02-23T03:04:17.329Z,18.8
2018-02-23T03:05:26.536Z,18.76
2018-02-23T03:06:35.483Z,18.85
2018-02-23T03:07:44.156Z,18.87
2018-02-23T03:08:52.867Z,18.81
2018-02-23T03:10:02.343Z,18.81
2018-02-23T03:11:11.802Z,18.91
2018-02-23T03:12:20.545Z,18.88
2018-02-23T03:13:30.028Z,18.88
2018-02-23T03:14:38.730Z,18.85
2018-02-23T03:15:47.695Z,18.84
2018-02-23T03:16:56.654Z,18.84
2018-02-23T03:18:05.896Z,18.85
2018-02-23T03:19:15.142Z,18.85
2018-02-23T03:20:24.112Z,18.78
2018-02-23T03:21:33.043Z,18.85
2018-02-23T03:22:42.252Z,18.87
2018-02-23T03:23:51.271Z,18.87
2018-02-23T03:25:00.221Z,18.81
2018-02-23T03:26:08.920Z,18.76
2018-02-23T03:27:17.612Z,18.78
2018-02-23T03:28:26.389Z,18.76
2018-02-23T03:29:35.102Z,18.78
2018-02-23T03:30:44.069Z,18.78
2018-02-23T03:31:53.038Z,18.78
2018-02-23T03:33:01.743Z,18.8
2018-02-23T03:34:10.439Z,18.76
2018-02-23T03:35:19.659Z,18.82
2018-02-23T03:36:28.608Z,18.82
2018-02-23T03:37:37.312Z,18.76
2018-02-23T03:38:46.254Z,18.8
2018-02-23T03:39:55.272Z,18.78
2018-02-23T03:41:03.979Z,18.72
2018-02-23T03:42:13.256Z,18.72
2018-02-23T03:43:22.480Z,18.72
2018-02-23T03:44:31.719Z,18.78
2018-02-23T03:45:40.930Z,18.69
2018-02-23T03:46:50.143Z,18.72
2018-02-23T03:47:59.402Z,18.69
2018-02-23T03:49:08.349Z,18.67
2018-02-23T03:50:17.306Z,18.72
2018-02-23T03:51:26.238Z,18.76
2018-02-23T03:52:34.996Z,18.7
2018-02-23T03:53:44.475Z,18.72
2018-02-23T03:54:54.465Z,18.7
2018-02-23T03:56:03.603Z,18.67
2018-02-23T03:57:12.862Z,18.76
2018-02-23T03:58:22.079Z,18.66
2018-02-23T03:59:31.575Z,18.6
2018-02-23T04:00:40.533Z,18.69
2018-02-23T04:01:49.478Z,18.7
2018-02-23T04:02:58.953Z,18.63
2018-02-23T04:04:07.668Z,18.65
2018-02-23T04:05:16.419Z,18.7
2018-02-23T04:06:25.311Z,18.78
2018-02-23T04:07:34.262Z,18.67
2018-02-23T04:08:43.229Z,18.69
2018-02-23T04:09:52.751Z,18.6
2018-02-23T04:11:01.427Z,18.65
2018-02-23T04:12:10.132Z,18.63
2018-02-23T04:13:18.821Z,18.6
2018-02-23T04:14:27.522Z,18.62
2018-02-23T04:15:36.770Z,18.58
2018-02-23T04:16:45.459Z,18.67
2018-02-23T04:17:54.655Z,18.62
2018-02-23T04:19:03.599Z,18.63
2018-02-23T04:20:12.631Z,18.69
2018-02-23T04:21:21.588Z,18.65
2018-02-23T04:22:30.822Z,18.65
2018-02-23T04:23:40.054Z,18.7
2018-02-23T04:24:49.304Z,18.6
2018-02-23T04:25:58.511Z,18.67
2018-02-23T04:27:07.721Z,18.67
2018-02-23T04:28:16.662Z,18.7
2018-02-23T04:29:25.907Z,18.65
2018-02-23T04:30:34.620Z,18.65
2018-02-23T04:31:43.855Z,18.55
2018-02-23T04:32:52.565Z,18.57
2018-02-23T04:34:01.243Z,18.57
2018-02-23T04:35:10.519Z,18.55
2018-02-23T04:36:19.269Z,18.55
2018-02-23T04:37:28.485Z,18.63
2018-02-23T04:38:37.744Z,18.54
2018-02-23T04:39:46.697Z,18.52
2018-02-23T04:40:55.660Z,18.63
2018-02-23T04:42:04.609Z,18.51
2018-02-23T04:43:13.832Z,18.52
2018-02-23T04:44:22.508Z,18.62
2018-02-23T04:45:31.774Z,18.6
2018-02-23T04:46:41.243Z,18.5
2018-02-23T04:47:50.282Z,18.55
2018-02-23T04:48:59.557Z,18.54
2018-02-23T04:50:08.765Z,18.62
2018-02-23T04:51:17.520Z,18.54
2018-02-23T04:52:26.747Z,18.52
2018-02-23T04:53:35.698Z,18.55
2018-02-23T04:54:44.652Z,18.55
2018-02-23T04:55:53.879Z,18.52
2018-02-23T04:57:02.616Z,18.52
2018-02-23T04:58:11.585Z,18.51
2018-02-23T04:59:20.567Z,18.48
2018-02-23T05:00:29.548Z,18.54
2018-02-23T05:01:38.248Z,18.55
2018-02-23T05:02:47.191Z,18.39
2018-02-23T05:03:56.659Z,18.45
2018-02-23T05:05:06.161Z,18.48
2018-02-23T05:06:15.405Z,18.51
2018-02-23T05:07:24.346Z,18.44
2018-02-23T05:08:33.609Z,18.52
2018-02-23T05:09:42.838Z,18.42
2018-02-23T05:10:52.120Z,18.48
2018-02-23T05:12:01.071Z,18.44
2018-02-23T05:13:10.554Z,18.48
2018-02-23T05:14:19.504Z,18.48
2018-02-23T05:15:28.737Z,18.47
2018-02-23T05:16:38.148Z,18.51
2018-02-23T05:17:46.849Z,18.45
2018-02-23T05:18:56.324Z,18.45
2018-02-23T05:20:05.317Z,18.5
2018-02-23T05:21:14.022Z,18.47
2018-02-23T05:22:22.969Z,18.51
2018-02-23T05:23:32.497Z,18.45
2018-02-23T05:24:41.308Z,18.39
2018-02-23T05:25:50.311Z,18.45
2018-02-23T05:26:59.536Z,18.44
2018-02-23T05:28:09.023Z,18.41
2018-02-23T05:29:18.263Z,18.45
2018-02-23T05:30:27.466Z,18.44
2018-02-23T05:31:36.153Z,18.5
2018-02-23T05:32:45.111Z,18.47
2018-02-23T05:33:54.075Z,18.36
2018-02-23T05:35:03.367Z,18.35
2018-02-23T05:36:12.575Z,18.36
2018-02-23T05:37:21.291Z,18.42
2018-02-23T05:38:30.512Z,18.47
2018-02-23T05:39:39.225Z,18.36
2018-02-23T05:40:48.195Z,18.41
2018-02-23T05:41:57.681Z,18.36
2018-02-23T05:43:06.373Z,18.36
2018-02-23T05:44:15.337Z,18.42
2018-02-23T05:45:24.566Z,18.39
2018-02-23T05:46:33.759Z,18.47
2018-02-23T05:47:42.982Z,18.36
2018-02-23T05:48:51.924Z,18.33
2018-02-23T05:50:01.172Z,18.36
2018-02-23T05:51:10.140Z,18.41
2018-02-23T05:52:18.876Z,18.35
2018-02-23T05:53:27.574Z,18.33
2018-02-23T05:54:36.520Z,18.41
2018-02-23T05:55:45.459Z,18.44
2018-02-23T05:56:54.150Z,18.3
2018-02-23T05:58:03.093Z,18.33
2018-02-23T05:59:12.666Z,18.37
2018-02-23T06:00:22.151Z,18.36
2018-02-23T06:01:31.160Z,18.3
2018-02-23T06:02:40.113Z,18.35
2018-02-23T06:03:48.820Z,18.36
2018-02-23T06:04:58.035Z,18.3
2018-02-23T06:06:07.242Z,18.35
2018-02-23T06:07:16.200Z,18.33
2018-02-23T06:08:25.423Z,18.37
2018-02-23T06:09:34.887Z,18.27
2018-02-23T06:10:43.845Z,18.36
2018-02-23T06:11:53.065Z,18.27
2018-02-23T06:13:02.276Z,18.37
2018-02-23T06:14:11.238Z,18.35
2018-02-23T06:15:20.461Z,18.37
2018-02-23T06:16:29.391Z,18.29
2018-02-23T06:17:38.596Z,18.35
2018-02-23T06:18:47.525Z,18.29
2018-02-23T06:19:56.217Z,18.35
2018-02-23T06:21:05.173Z,18.33
2018-02-23T06:22:13.876Z,18.3
2018-02-23T06:23:22.582Z,18.33
2018-02-23T06:24:31.275Z,18.29
2018-02-23T06:25:40.214Z,18.29
2018-02-23T06:26:49.161Z,18.29
2018-02-23T06:27:58.102Z,18.29
2018-02-23T06:29:07.579Z,18.27
2018-02-23T06:30:16.808Z,18.29
2018-02-23T06:31:25.737Z,18.37
2018-02-23T06:32:34.420Z,18.37
2018-02-23T06:33:43.624Z,18.29
2018-02-23T06:34:52.921Z,18.29
2018-02-23T06:36:01.918Z,18.32
2018-02-23T06:37:11.150Z,18.3
2018-02-23T06:38:20.378Z,18.32
2018-02-23T06:39:29.845Z,18.25
2018-02-23T06:40:38.800Z,18.29
2018-02-23T06:41:48.020Z,18.36
2018-02-23T06:42:57.034Z,18.36
2018-02-23T06:44:05.997Z,18.33
2018-02-23T06:45:14.952Z,18.29
2018-02-23T06:46:24.167Z,18.32
2018-02-23T06:47:33.410Z,18.39
2018-02-23T06:48:42.735Z,18.33
2018-02-23T06:49:52.744Z,18.36
2018-02-23T06:51:01.687Z,18.33
2018-02-23T06:52:11.163Z,18.26
2018-02-23T06:53:20.131Z,18.39
2018-02-23T06:54:29.342Z,18.39
2018-02-23T06:55:38.842Z,18.37
2018-02-23T06:56:47.813Z,18.41
2018-02-23T06:57:57.024Z,18.36
2018-02-23T06:59:05.980Z,18.42
2018-02-23T07:00:14.996Z,18.3
2018-02-23T07:01:24.517Z,18.35
2018-02-23T07:02:33.207Z,18.35
2018-02-23T07:03:42.459Z,18.36
2018-02-23T07:04:51.432Z,18.35
2018-02-23T07:06:00.592Z,18.35
2018-02-23T07:07:09.683Z,18.32
2018-02-23T07:08:18.678Z,18.36
2018-02-23T07:09:27.417Z,18.32
2018-02-23T07:10:36.633Z,18.35
2018-02-23T07:11:45.882Z,18.44
2018-02-23T07:12:55.131Z,18.35
2018-02-23T07:14:04.359Z,18.41
2018-02-23T07:15:13.618Z,18.39
2018-02-23T07:16:22.569Z,18.32
2018-02-23T07:17:31.529Z,18.44
2018-02-23T07:18:40.499Z,18.41
2018-02-23T07:19:49.436Z,18.45
2018-02-23T07:20:58.144Z,18.45
2018-02-23T07:22:07.127Z,18.42
2018-02-23T07:23:16.151Z,18.41
2018-02-23T07:24:25.351Z,18.45
2018-02-23T07:25:34.576Z,18.47
2018-02-23T07:26:44.051Z,18.44
2018-02-23T07:27:53.017Z,18.44
2018-02-23T07:29:02.219Z,18.37
2018-02-23T07:30:11.189Z,18.44
2018-02-23T07:31:20.132Z,18.5
2018-02-23T07:32:29.334Z,18.41
2018-02-23T07:33:38.034Z,18.44
2018-02-23T07:34:46.817Z,18.48
2018-02-23T07:35:55.519Z,18.42
2018-02-23T07:37:04.461Z,18.41
2018-02-23T07:38:13.425Z,18.45
2018-02-23T07:39:22.895Z,18.48
2018-02-23T07:40:32.096Z,18.41
2018-02-23T07:41:41.316Z,18.48
2018-02-23T07:42:50.273Z,18.45
2018-02-23T07:43:59.279Z,18.48
2018-02-23T07:45:08.280Z,18.47
2018-02-23T07:46:17.775Z,18.44
2018-02-23T07:47:27.026Z,18.5
2018-02-23T07:48:35.983Z,18.52
2018-02-23T07:49:44.953Z,18.45
2018-02-23T07:50:53.950Z,18.47
2018-02-23T07:52:02.940Z,18.51
2018-02-23T07:53:11.887Z,18.44
2018-02-23T07:54:20.870Z,18.42
2018-02-23T07:55:29.580Z,18.5
2018-02-23T07:56:39.109Z,18.48
2018-02-23T07:57:48.331Z,18.47
2018-02-23T07:58:57.309Z,18.55
2018-02-23T08:00:06.529Z,18.62
2018-02-23T08:01:15.795Z,18.65
2018-02-23T08:02:25.364Z,18.65
2018-02-23T08:03:34.592Z,18.7
2018-02-23T08:04:43.814Z,18.78
2018-02-23T08:05:53.072Z,18.87
2018-02-23T08:07:02.056Z,18.81
2018-02-23T08:08:11.051Z,18.94
2018-02-23T08:09:20.490Z,18.98
2018-02-23T08:10:29.732Z,19.08
2018-02-23T08:11:38.681Z,19.14
2018-02-23T08:12:47.519Z,19.25
2018-02-23T08:13:56.813Z,19.25
2018-02-23T08:15:06.032Z,19.4
2018-02-23T08:16:15.514Z,19.48
2018-02-23T08:17:24.211Z,19.47
2018-02-23T08:18:33.478Z,19.55
2018-02-23T08:19:42.618Z,19.58
2018-02-23T08:20:51.571Z,19.65
2018-02-23T08:22:00.529Z,19.65
2018-02-23T08:23:10.239Z,19.69
2018-02-23T08:24:19.936Z,19.71
2018-02-23T08:25:30.204Z,19.86
2018-02-23T08:26:39.586Z,19.8
2018-02-23T08:27:48.538Z,19.87
2018-02-23T08:28:58.082Z,19.91
2018-02-23T08:30:07.351Z,19.98
2018-02-23T08:31:16.826Z,19.99
2018-02-23T08:32:25.618Z,20.06
2018-02-23T08:33:34.556Z,20.1
2018-02-23T08:34:43.236Z,20.18
2018-02-23T08:35:52.725Z,20.2
2018-02-23T08:37:01.762Z,20.17
2018-02-23T08:38:10.742Z,20.28
2018-02-23T08:39:19.428Z,20.31
2018-02-23T08:40:28.118Z,20.36
2018-02-23T08:41:37.699Z,20.29
2018-02-23T08:42:46.935Z,20.39
2018-02-23T08:43:55.690Z,20.42
2018-02-23T08:45:04.446Z,20.5
2018-02-23T08:46:14.143Z,20.51
2018-02-23T08:47:23.376Z,20.51
2018-02-23T08:48:32.334Z,20.58
2018-02-23T08:49:41.298Z,20.59
2018-02-23T08:50:50.234Z,20.61
2018-02-23T08:51:59.241Z,20.67
2018-02-23T08:53:07.916Z,20.69
2018-02-23T08:54:16.617Z,20.73
2018-02-23T08:55:25.842Z,20.72
2018-02-23T08:56:35.086Z,20.74
2018-02-23T08:57:43.790Z,20.84
2018-02-23T08:58:52.778Z,20.67
2018-02-23T09:00:02.241Z,20.79
2018-02-23T09:01:11.187Z,20.8
2018-02-23T09:02:20.156Z,20.88
2018-02-23T09:03:29.360Z,20.92
2018-02-23T09:04:38.605Z,20.85
2018-02-23T09:05:47.586Z,20.94
2018-02-23T09:06:56.569Z,20.95
2018-02-23T09:08:06.309Z,20.91
2018-02-23T09:09:15.540Z,20.99
2018-02-23T09:10:25.027Z,21.01
2018-02-23T09:11:33.980Z,21.03
2018-02-23T09:12:43.076Z,21.12
2018-02-23T09:13:51.771Z,21.07
2018-02-23T09:15:01.029Z,21.22
2018-02-23T09:16:10.013Z,21.17
2018-02-23T09:17:18.788Z,21.25
2018-02-23T09:18:27.979Z,21.25
2018-02-23T09:19:37.315Z,21.35
2018-02-23T09:20:46.034Z,21.44
2018-02-23T09:21:55.302Z,21.43
2018-02-23T09:23:04.806Z,21.58
2018-02-23T09:24:14.162Z,21.5
2018-02-23T09:25:22.889Z,21.58
2018-02-23T09:26:32.219Z,21.54
2018-02-23T09:27:41.275Z,21.65
2018-02-23T09:28:49.952Z,21.65
2018-02-23T09:29:59.181Z,21.69
2018-02-23T09:31:08.512Z,21.65
2018-02-23T09:32:17.227Z,21.74
2018-02-23T09:33:26.502Z,21.79
2018-02-23T09:34:35.737Z,21.9
2018-02-23T09:35:45.204Z,21.86
2018-02-23T09:36:53.894Z,21.84
2018-02-23T09:38:02.835Z,21.98
2018-02-23T09:39:11.868Z,21.88
2018-02-23T09:40:20.842Z,21.88
2018-02-23T09:41:30.340Z,21.9
2018-02-23T09:42:39.598Z,21.84
2018-02-23T09:43:48.800Z,21.99
2018-02-23T09:44:58.018Z,21.96
2018-02-23T09:46:07.271Z,22.02
2018-02-23T09:47:16.596Z,21.99
2018-02-23T09:48:25.834Z,21.96
2018-02-23T09:49:34.785Z,22.06
2018-02-23T09:50:43.612Z,22.12
2018-02-23T09:51:52.876Z,22.05
2018-02-23T09:53:02.392Z,22.05
2018-02-23T09:54:11.065Z,22.07
2018-02-23T09:55:20.539Z,22.1
2018-02-23T09:56:29.738Z,22.09
2018-02-23T09:57:38.964Z,22.18
2018-02-23T09:58:48.505Z,22.17
2018-02-23T09:59:58.459Z,22.21
2018-02-23T10:01:07.182Z,22.15
2018-02-23T10:02:16.634Z,22.17
2018-02-23T10:03:25.626Z,22.21
2018-02-23T10:04:34.575Z,22.25
2018-02-23T10:05:43.539Z,22.21
2018-02-23T10:06:52.230Z,22.2
2018-02-23T10:08:01.195Z,22.18
2018-02-23T10:09:10.160Z,22.14
2018-02-23T10:10:18.852Z,22.05
2018-02-23T10:11:28.605Z,22.03
2018-02-23T10:12:37.316Z,22.15
2018-02-23T10:13:46.273Z,22.06
2018-02-23T10:14:54.976Z,21.98
2018-02-23T10:16:04.569Z,22.05
2018-02-23T10:17:13.718Z,21.96
2018-02-23T10:18:23.212Z,21.99
2018-02-23T10:19:31.991Z,21.99
2018-02-23T10:20:40.821Z,21.94
2018-02-23T10:21:50.791Z,21.91
2018-02-23T10:23:00.078Z,21.86
2018-02-23T10:24:09.054Z,21.74
2018-02-23T10:25:18.156Z,21.83
2018-02-23T10:26:27.956Z,21.69
2018-02-23T10:27:38.981Z,21.69
2018-02-23T10:28:48.244Z,21.59
2018-02-23T10:29:56.959Z,21.61
2018-02-23T10:31:06.477Z,21.59
2018-02-23T10:32:15.424Z,21.59
2018-02-23T10:33:24.604Z,21.49
2018-02-23T10:34:33.835Z,21.49
2018-02-23T10:35:43.360Z,21.42
2018-02-23T10:36:52.299Z,21.34
2018-02-23T10:38:01.898Z,21.42
2018-02-23T10:39:11.211Z,21.38
2018-02-23T10:40:20.436Z,21.34
2018-02-23T10:41:29.392Z,21.31
2018-02-23T10:42:38.689Z,21.17
2018-02-23T10:43:47.652Z,21.14
2018-02-23T10:44:56.618Z,21.13
2018-02-23T10:46:06.357Z,21.14
2018-02-23T10:47:15.660Z,21.09
2018-02-23T10:48:24.592Z,21.03
2018-02-23T10:49:34.054Z,20.97
2018-02-23T10:50:43.285Z,20.94
2018-02-23T10:51:52.230Z,20.94
2018-02-23T10:53:01.178Z,20.94
2018-02-23T10:54:10.157Z,20.91
2018-02-23T10:55:18.878Z,20.84
2018-02-23T10:56:27.851Z,20.88
2018-02-23T10:57:37.086Z,20.76
2018-02-23T10:58:45.765Z,20.77
2018-02-23T10:59:55.021Z,20.77
2018-02-23T11:01:04.490Z,20.72
2018-02-23T11:02:13.441Z,20.69
2018-02-23T11:03:22.404Z,20.67
2018-02-23T11:04:31.105Z,20.66
2018-02-23T11:05:40.323Z,20.72
2018-02-23T11:06:49.285Z,20.7
2018-02-23T11:07:58.534Z,20.62
2018-02-23T11:09:07.756Z,20.61
2018-02-23T11:10:16.980Z,20.59
2018-02-23T11:11:25.656Z,20.51
2018-02-23T11:12:35.527Z,20.57
2018-02-23T11:13:45.281Z,20.55
2018-02-23T11:14:54.550Z,20.51
2018-02-23T11:16:03.516Z,20.5
2018-02-23T11:17:12.726Z,20.5
2018-02-23T11:18:21.940Z,20.43
2018-02-23T11:19:31.431Z,20.41
2018-02-23T11:20:41.179Z,20.39
2018-02-23T11:21:50.394Z,20.39
2018-02-23T11:22:59.088Z,20.38
2018-02-23T11:24:08.043Z,20.35
2018-02-23T11:25:17.266Z,20.32
2018-02-23T11:26:26.209Z,20.38
2018-02-23T11:27:35.160Z,20.36
2018-02-23T11:28:44.368Z,20.21
2018-02-23T11:29:53.072Z,20.13
2018-02-23T11:31:02.550Z,20.16
2018-02-23T11:32:11.235Z,20.2
2018-02-23T11:33:19.931Z,20.28
2018-02-23T11:34:28.638Z,20.14
2018-02-23T11:35:37.850Z,20.14
2018-02-23T11:36:47.113Z,20.26
2018-02-23T11:37:56.052Z,20.23
2018-02-23T11:39:05.000Z,20.2
2018-02-23T11:40:13.963Z,20.23
2018-02-23T11:41:22.669Z,20.18
2018-02-23T11:42:31.924Z,20.18
2018-02-23T11:43:41.135Z,20.26
2018-02-23T11:44:50.697Z,20.32
2018-02-23T11:46:00.162Z,20.36
2018-02-23T11:47:09.381Z,20.39
2018-02-23T11:48:18.383Z,20.43
2018-02-23T11:49:27.348Z,20.35
2018-02-23T11:50:36.296Z,20.2
2018-02-23T11:51:45.510Z,19.99
2018-02-23T11:52:55.263Z,19.74
2018-02-23T11:54:04.754Z,19.48
2018-02-23T11:55:13.963Z,19.36
2018-02-23T11:56:22.657Z,19.1
2018-02-23T11:57:31.346Z,18.94
2018-02-23T11:58:40.290Z,18.69
2018-02-23T11:59:49.011Z,18.51
2018-02-23T12:00:58.558Z,18.3
2018-02-23T12:02:07.769Z,18.2
2018-02-23T12:03:16.736Z,17.97
2018-02-23T12:04:25.957Z,17.87
2018-02-23T12:05:36.206Z,17.64
2018-02-23T12:06:45.898Z,17.46
2018-02-23T12:07:55.112Z,17.22
2018-02-23T12:09:04.594Z,17.19
2018-02-23T12:10:13.809Z,17
2018-02-23T12:11:22.777Z,16.91
2018-02-23T12:12:32.385Z,16.73
2018-02-23T12:13:41.860Z,16.57
2018-02-23T12:14:50.702Z,16.38
2018-02-23T12:15:59.649Z,16.34
2018-02-23T12:17:08.632Z,16.15
2018-02-23T12:18:18.095Z,16.05
2018-02-23T12:19:27.337Z,16
2018-02-23T12:20:36.028Z,15.87
2018-02-23T12:21:44.992Z,15.76
2018-02-23T12:22:54.491Z,15.68
2018-02-23T12:24:03.701Z,15.6
2018-02-23T12:25:12.636Z,15.46
2018-02-23T12:26:22.113Z,15.34
2018-02-23T12:27:31.312Z,15.16
2018-02-23T12:28:40.533Z,14.98
2018-02-23T12:29:49.783Z,14.88
2018-02-23T12:30:58.519Z,14.7
2018-02-23T12:32:07.477Z,14.57
2018-02-23T12:33:16.748Z,14.51
2018-02-23T12:34:25.976Z,14.35
2018-02-23T12:35:35.011Z,14.27
2018-02-23T12:36:44.247Z,14.2
2018-02-23T12:37:53.459Z,14.14
2018-02-23T12:39:02.462Z,14.02
2018-02-23T12:40:11.698Z,14.04
2018-02-23T12:41:20.487Z,13.95
